Time;durP1;ratioP1;P1;durP2;ratioP2;P2;SDS_P1;SDS_P2;PMS_P1;PMS_P2;Temp;Humidity;BMP_temperature;BMP_pressure;BME280_temperature;BME280_humidity;BME280_pressure;Samples;Min_cycle;Max_cycle;Signal;HPM_P1;HPM_P2
2023/06/03 00:00:29;;;;;;;4.60;2.33;;;;;;;14.40;57.40;99024.09;4936025;29;42268;-78
2023/06/03 00:02:56;;;;;;;3.80;2.67;;;;;;;14.48;57.43;99034.16;4919815;29;38949;-78
2023/06/03 00:05:24;;;;;;;3.87;2.30;;;;;;;14.46;57.85;99026.31;4918802;29;40742;-78
2023/06/03 00:07:52;;;;;;;5.77;2.80;;;;;;;14.45;57.76;99032.59;4936263;29;43885;-79
2023/06/03 00:10:19;;;;;;;6.07;2.70;;;;;;;14.20;57.83;99004.25;4918792;29;42276;-78
2023/06/03 00:12:47;;;;;;;4.73;2.70;;;;;;;14.31;58.04;99022.09;4919354;29;39172;-78
2023/06/03 00:15:15;;;;;;;5.03;2.87;;;;;;;14.41;57.88;99039.13;4918732;29;40816;-79
2023/06/03 00:17:45;;;;;;;4.87;2.70;;;;;;;14.39;58.68;99030.34;4934740;29;42872;-78
2023/06/03 00:20:12;;;;;;;3.93;2.83;;;;;;;14.35;58.60;99029.72;4918415;29;41470;-78
2023/06/03 00:22:41;;;;;;;4.37;2.70;;;;;;;14.38;58.68;99033.97;4933787;29;39560;-78
2023/06/03 00:25:11;;;;;;;7.00;3.20;;;;;;;14.37;59.16;99033.13;4933804;28;42720;-81
2023/06/03 00:27:40;;;;;;;7.13;2.57;;;;;;;14.38;59.22;99028.66;4918023;29;42637;-78
2023/06/03 00:30:09;;;;;;;7.60;3.03;;;;;;;14.34;59.14;99027.19;4933507;29;42543;-78
2023/06/03 00:32:37;;;;;;;4.60;3.07;;;;;;;14.39;59.20;99043.66;4933857;29;40068;-78
2023/06/03 00:35:07;;;;;;;4.20;2.70;;;;;;;14.39;59.55;99046.34;4917430;29;41094;-78
2023/06/03 00:37:35;;;;;;;3.93;2.80;;;;;;;14.41;59.06;99038.25;4917786;29;41704;-79
2023/06/03 00:40:03;;;;;;;4.33;2.80;;;;;;;14.42;59.07;99046.16;4917586;29;41084;-80
2023/06/03 00:42:30;;;;;;;5.17;3.23;;;;;;;14.43;59.24;99052.31;4933586;29;41081;-79
2023/06/03 00:44:58;;;;;;;5.10;3.20;;;;;;;14.44;59.31;99051.38;4917361;29;40766;-80
2023/06/03 00:47:28;;;;;;;6.00;3.07;;;;;;;14.29;59.25;99021.34;4933455;29;42729;-80
2023/06/03 00:49:56;;;;;;;6.03;3.30;;;;;;;14.40;59.29;99040.09;4917385;29;41377;-79
2023/06/03 00:52:25;;;;;;;5.70;3.50;;;;;;;14.45;59.57;99045.94;4917223;29;40140;-80
2023/06/03 00:54:53;;;;;;;6.23;3.60;;;;;;;14.44;59.47;99044.22;4933577;29;41504;-79
2023/06/03 00:57:22;;;;;;;3.90;2.97;;;;;;;14.45;59.35;99051.25;4918451;29;41584;-78
2023/06/03 00:59:50;;;;;;;9.70;4.70;;;;;;;14.43;59.99;99039.84;4918352;29;42367;-79
2023/06/03 01:02:17;;;;;;;6.73;3.20;;;;;;;14.41;59.67;99039.13;4934468;28;40910;-78
2023/06/03 01:04:48;;;;;;;6.00;3.13;;;;;;;14.41;59.71;99047.13;4934038;29;42058;-79
2023/06/03 01:07:21;;;;;;;6.40;3.10;;;;;;;14.22;59.55;99018.28;4933947;29;42733;-78
2023/06/03 01:10:03;;;;;;;5.87;3.40;;;;;;;14.36;59.56;99041.22;4918018;29;41179;-79
2023/06/03 01:12:36;;;;;;;4.90;3.17;;;;;;;14.32;59.92;99035.31;4931452;29;40053;-78
2023/06/03 01:15:09;;;;;;;5.73;3.40;;;;;;;14.31;59.76;99038.09;4917798;29;40904;-78
2023/06/03 01:17:45;;;;;;;5.43;3.20;;;;;;;14.28;59.77;99039.16;4932206;29;42754;-78
2023/06/03 01:20:13;;;;;;;6.97;3.17;;;;;;;14.21;59.64;99045.06;4932621;29;43243;-79
2023/06/03 01:22:44;;;;;;;5.23;3.57;;;;;;;14.11;59.88;99018.25;4918083;29;39004;-80
2023/06/03 01:25:16;;;;;;;6.23;3.80;;;;;;;14.21;59.92;99029.09;4932520;29;42720;-79
2023/06/03 01:27:45;;;;;;;5.53;3.70;;;;;;;14.23;60.22;99037.78;4918297;29;42787;-80
2023/06/03 01:30:16;;;;;;;5.30;3.27;;;;;;;14.12;60.66;99019.09;4933026;29;42495;-80
2023/06/03 01:32:46;;;;;;;4.47;3.70;;;;;;;14.23;60.68;99037.78;4931921;29;41074;-79
2023/06/03 01:35:14;;;;;;;5.40;3.50;;;;;;;14.25;60.20;99043.84;4916755;29;41766;-77
2023/06/03 01:37:42;;;;;;;7.03;4.07;;;;;;;14.24;60.81;99037.66;4916692;29;41867;-78
2023/06/03 01:40:11;;;;;;;5.73;4.33;;;;;;;14.19;61.12;99036.34;4933746;29;43193;-78
2023/06/03 01:42:40;;;;;;;8.60;3.90;;;;;;;14.08;60.91;99020.31;4933973;29;40283;-80
2023/06/03 01:45:08;;;;;;;6.77;3.30;;;;;;;14.20;60.80;99035.38;4916605;29;40671;-81
2023/06/03 01:47:36;;;;;;;5.63;3.67;;;;;;;14.20;60.80;99033.56;4916280;29;41545;-79
2023/06/03 01:50:04;;;;;;;6.83;3.63;;;;;;;14.17;60.60;99036.44;4916587;29;41433;-78
2023/06/03 01:52:33;;;;;;;7.23;4.20;;;;;;;14.16;60.69;99033.88;4916930;29;39577;-78
2023/06/03 01:55:01;;;;;;;6.57;3.93;;;;;;;14.13;60.57;99028.78;4916848;29;41494;-80
2023/06/03 01:57:28;;;;;;;6.33;4.30;;;;;;;14.01;61.15;99023.41;4917647;29;41692;-79
2023/06/03 01:59:58;;;;;;;7.43;4.63;;;;;;;14.01;61.28;99026.06;4917293;29;41672;-79
2023/06/03 02:02:26;;;;;;;6.97;4.50;;;;;;;13.94;61.12;99035.47;4917340;29;39141;-78
2023/06/03 02:04:56;;;;;;;9.30;4.27;;;;;;;13.81;61.74;99012.53;4933069;29;41389;-79
2023/06/03 02:07:30;;;;;;;7.27;4.70;;;;;;;13.86;61.56;99021.00;4917923;29;42086;-78
2023/06/03 02:09:57;;;;;;;6.67;4.80;;;;;;;13.65;62.14;99005.66;4917130;29;41427;-79
2023/06/03 02:12:25;;;;;;;8.07;4.30;;;;;;;13.75;61.97;99027.13;4933513;29;40789;-80
2023/06/03 02:14:53;;;;;;;5.97;4.13;;;;;;;13.67;62.37;99029.50;4917060;29;40801;-77
2023/06/03 02:17:26;;;;;;;7.67;4.00;;;;;;;13.60;62.90;99030.88;4933131;29;43708;-78
2023/06/03 02:19:54;;;;;;;6.60;4.03;;;;;;;13.38;62.34;98997.00;4916856;29;41573;-79
2023/06/03 02:22:23;;;;;;;5.43;3.83;;;;;;;13.42;62.58;99005.63;4933300;29;40828;-78
2023/06/03 02:24:51;;;;;;;5.60;4.33;;;;;;;13.48;62.88;99023.78;4932471;29;42422;-78
2023/06/03 02:27:20;;;;;;;6.27;3.87;;;;;;;13.45;62.61;99026.69;4916409;29;42755;-79
2023/06/03 02:29:50;;;;;;;6.03;4.00;;;;;;;13.28;62.53;99004.78;4916063;29;42576;-79
2023/06/03 02:32:20;;;;;;;7.17;4.03;;;;;;;13.36;62.96;99028.16;4932412;29;39316;-78
2023/06/03 02:34:50;;;;;;;5.13;4.20;;;;;;;13.31;62.93;99025.00;4915911;29;40746;-80
2023/06/03 02:37:18;;;;;;;6.23;4.07;;;;;;;13.25;63.09;99026.28;4916203;29;42874;-78
2023/06/03 02:39:46;;;;;;;8.03;4.10;;;;;;;13.19;63.65;99018.75;4931521;29;42274;-79
2023/06/03 02:42:15;;;;;;;8.00;3.83;;;;;;;13.02;63.52;99003.09;4916140;29;39195;-79
2023/06/03 02:44:42;;;;;;;5.33;3.67;;;;;;;13.13;63.82;99029.78;4933793;29;42662;-77
2023/06/03 02:47:11;;;;;;;5.07;4.47;;;;;;;13.11;64.39;99030.81;4935312;29;42747;-79
2023/06/03 02:49:39;;;;;;;6.93;4.60;;;;;;;13.06;64.27;99031.16;4919137;29;41366;-80
2023/06/03 02:52:10;;;;;;;6.93;4.50;;;;;;;12.99;64.64;99029.88;4919570;29;39955;-80
2023/06/03 02:54:37;;;;;;;5.17;4.40;;;;;;;12.97;64.25;99031.81;4935265;29;42461;-79
2023/06/03 02:57:07;;;;;;;8.10;4.73;;;;;;;12.93;64.46;99025.00;4936112;29;42722;-79
2023/06/03 02:59:35;;;;;;;6.07;3.77;;;;;;;12.91;64.15;99037.53;4935647;29;42407;-79
2023/06/03 03:02:03;;;;;;;7.13;4.30;;;;;;;12.88;64.29;99027.13;4919766;29;40025;-78
2023/06/03 03:04:36;;;;;;;5.87;4.73;;;;;;;12.78;64.34;99026.91;4919753;29;41740;-79
2023/06/03 03:07:05;;;;;;;5.17;4.20;;;;;;;12.82;64.78;99030.22;4920093;29;41744;-79
2023/06/03 03:09:35;;;;;;;6.27;4.37;;;;;;;12.80;64.38;99046.25;4919509;29;42162;-79
2023/06/03 03:12:03;;;;;;;7.87;4.47;;;;;;;12.76;64.88;99038.59;4935824;29;40965;-77
2023/06/03 03:14:31;;;;;;;5.40;4.00;;;;;;;12.65;64.53;99025.19;4919472;29;40812;-81
2023/06/03 03:16:58;;;;;;;6.27;4.03;;;;;;;12.74;63.97;99056.44;4919787;29;42798;-79
2023/06/03 03:19:28;;;;;;;5.93;4.80;;;;;;;12.59;64.37;99026.47;4919261;29;41272;-79
2023/06/03 03:21:56;;;;;;;6.50;4.63;;;;;;;12.71;64.61;99046.03;4935923;29;40141;-79
2023/06/03 03:24:27;;;;;;;5.83;4.37;;;;;;;12.69;64.42;99053.25;4919425;29;40703;-79
2023/06/03 03:26:57;;;;;;;5.63;4.20;;;;;;;12.68;64.15;99056.88;4919829;29;41876;-78
2023/06/03 03:29:26;;;;;;;10.07;4.37;;;;;;;12.68;64.66;99062.19;4919395;29;41467;-79
2023/06/03 03:32:07;;;;;;;5.93;4.20;;;;;;;12.57;64.96;99034.53;4917925;29;39033;-79
2023/06/03 03:34:37;;;;;;;5.77;4.57;;;;;;;12.67;64.53;99056.03;4932334;29;41721;-79
2023/06/03 03:37:06;;;;;;;4.90;3.83;;;;;;;12.68;64.14;99062.19;4918432;29;42769;-80
2023/06/03 03:39:38;;;;;;;5.53;4.40;;;;;;;12.63;64.35;99045.69;4918263;29;41161;-80
2023/06/03 03:42:09;;;;;;;5.73;4.50;;;;;;;12.63;64.68;99051.00;4931345;29;40936;-78
2023/06/03 03:44:37;;;;;;;7.83;4.40;;;;;;;12.59;64.35;99053.03;4918494;29;41064;-80
2023/06/03 03:47:08;;;;;;;8.67;4.40;;;;;;;12.72;64.28;99061.88;4934234;29;42486;-79
2023/06/03 03:49:39;;;;;;;5.33;3.93;;;;;;;12.63;63.83;99043.88;4918248;29;41684;-78
2023/06/03 03:52:12;;;;;;;8.70;4.27;;;;;;;12.78;63.52;99068.56;4931469;29;40069;-78
2023/06/03 03:54:41;;;;;;;5.43;4.10;;;;;;;12.79;64.07;99059.66;4918671;29;40963;-79
2023/06/03 03:57:14;;;;;;;8.17;4.03;;;;;;;12.79;64.01;99064.97;4919359;29;41976;-78
2023/06/03 03:59:47;;;;;;;6.10;3.60;;;;;;;12.83;63.33;99071.78;4918991;29;42250;-79
2023/06/03 04:02:15;;;;;;;6.57;3.80;;;;;;;12.86;63.25;99076.88;4934868;29;40955;-79
2023/06/03 04:04:45;;;;;;;5.57;3.73;;;;;;;12.88;63.16;99070.50;4935764;29;41772;-79
2023/06/03 04:07:17;;;;;;;4.50;3.63;;;;;;;12.97;62.80;99078.81;4919350;29;42745;-80
2023/06/03 04:09:46;;;;;;;6.93;4.33;;;;;;;13.04;62.52;99080.94;4934553;29;41187;-79
2023/06/03 04:12:23;;;;;;;3.70;3.30;;;;;;;13.16;61.99;99084.59;4918975;29;38862;-79
2023/06/03 04:14:53;;;;;;;5.40;3.60;;;;;;;13.27;61.42;99093.53;4918794;29;41093;-78
2023/06/03 04:17:25;;;;;;;6.30;3.60;;;;;;;13.37;61.14;99084.88;4918656;29;41777;-79
2023/06/03 04:19:55;;;;;;;5.43;3.33;;;;;;;13.59;60.14;99095.75;4934373;29;43278;-78
2023/06/03 04:22:26;;;;;;;6.10;3.47;;;;;;;13.73;59.84;99106.22;4919005;29;39654;-78
2023/06/03 04:24:56;;;;;;;4.63;3.50;;;;;;;13.84;59.17;99098.34;4934003;29;40811;-78
2023/06/03 04:27:27;;;;;;;6.20;3.67;;;;;;;13.94;59.30;99104.72;4918839;29;41594;-80
2023/06/03 04:29:57;;;;;;;4.33;3.80;;;;;;;14.06;58.31;99105.63;4918241;29;42634;-78
2023/06/03 04:32:24;;;;;;;4.80;2.93;;;;;;;14.05;58.21;99092.41;4917234;29;38908;-79
2023/06/03 04:34:54;;;;;;;4.00;3.30;;;;;;;14.30;57.37;99111.81;4933552;29;41674;-80
2023/06/03 04:37:23;;;;;;;6.00;3.23;;;;;;;14.40;56.98;99112.03;4933344;29;42968;-78
2023/06/03 04:39:52;;;;;;;5.27;3.07;;;;;;;14.40;56.45;99112.03;4917538;29;41446;-78
2023/06/03 04:42:21;;;;;;;5.00;3.70;;;;;;;14.45;55.98;99125.88;4933524;29;39761;-79
2023/06/03 04:44:53;;;;;;;3.43;2.80;;;;;;;14.38;55.93;99108.59;4917824;29;40828;-79
2023/06/03 04:47:22;;;;;;;4.20;3.73;;;;;;;14.55;55.76;99120.69;4917479;29;41726;-79
2023/06/03 04:49:51;;;;;;;4.67;2.87;;;;;;;14.56;55.62;99117.94;4932909;28;43270;-79
2023/06/03 04:52:18;;;;;;;5.17;3.30;;;;;;;14.71;55.43;99127.41;4917411;29;39775;-78
2023/06/03 04:54:52;;;;;;;4.17;2.83;;;;;;;14.82;54.71;99125.78;4932286;29;42772;-79
2023/06/03 04:57:22;;;;;;;5.37;3.40;;;;;;;14.95;54.68;99135.41;4934096;29;41465;-79
2023/06/03 04:59:52;;;;;;;3.67;2.43;;;;;;;15.08;53.83;99130.00;4934110;29;42215;-78
2023/06/03 05:02:23;;;;;;;4.17;3.13;;;;;;;15.24;54.24;99129.63;4931259;29;40147;-79
2023/06/03 05:04:53;;;;;;;2.93;2.57;;;;;;;15.40;54.01;99141.69;4918125;29;40812;-79
2023/06/03 05:07:21;;;;;;;4.07;2.50;;;;;;;15.50;53.17;99140.97;4933077;29;43546;-79
2023/06/03 05:09:50;;;;;;;3.70;2.90;;;;;;;15.62;52.82;99145.38;4916031;29;42325;-79
2023/06/03 05:12:19;;;;;;;2.90;2.40;;;;;;;15.73;51.89;99143.56;4916985;29;40205;-80
2023/06/03 05:14:47;;;;;;;2.83;2.53;;;;;;;15.85;51.81;99144.41;4932447;29;41768;-79
2023/06/03 05:17:17;;;;;;;4.47;2.60;;;;;;;15.96;52.05;99141.72;4932958;29;42680;-78
2023/06/03 05:19:45;;;;;;;3.80;2.80;;;;;;;15.99;51.36;99129.94;4914704;29;42223;-81
2023/06/03 05:22:12;;;;;;;4.93;2.50;;;;;;;15.93;50.40;99125.97;4903790;28;40298;-88
2023/06/03 05:24:41;;;;;;;2.63;2.37;;;;;;;16.24;50.86;99142.16;4931693;29;42001;-85
2023/06/03 05:27:10;;;;;;;3.83;2.43;;;;;;;16.30;50.53;99125.66;4942451;28;42814;-87
2023/06/03 05:29:38;;;;;;;5.97;2.93;;;;;;;16.36;49.31;99127.81;4918180;28;41075;-85
2023/06/03 05:32:06;;;;;;;3.60;2.80;;;;;;;16.45;49.45;99135.06;4951605;28;40874;-88
2023/06/03 05:34:37;;;;;;;3.67;2.57;;;;;;;16.38;49.31;99117.84;4930392;29;41813;-84
2023/06/03 05:37:06;;;;;;;3.40;2.30;;;;;;;16.57;49.12;99138.59;4917725;29;43132;-85
2023/06/03 05:39:35;;;;;;;5.33;2.60;;;;;;;16.60;49.27;99133.81;4916624;29;41413;-88
2023/06/03 05:42:05;;;;;;;7.43;3.40;;;;;;;16.64;48.70;99137.97;4930561;29;41020;-85
2023/06/03 05:44:33;;;;;;;5.03;2.67;;;;;;;16.76;48.74;99154.81;4932898;28;42930;-84
2023/06/03 05:47:01;;;;;;;3.00;2.27;;;;;;;16.69;49.02;99122.38;4917689;29;41378;-84
2023/06/03 05:49:29;;;;;;;3.17;2.30;;;;;;;16.87;49.33;99131.53;4920296;29;40799;-85
2023/06/03 05:51:58;;;;;;;3.23;2.53;;;;;;;17.18;48.42;99150.38;4925307;29;38877;-84
2023/06/03 05:54:28;;;;;;;5.50;2.50;;;;;;;17.34;48.42;99156.09;4919702;29;41068;-82
2023/06/03 05:56:57;;;;;;;4.73;2.53;;;;;;;17.52;48.39;99154.53;4923065;29;41936;-83
2023/06/03 05:59:25;;;;;;;2.77;2.50;;;;;;;17.68;47.19;99162.09;4935083;28;42387;-83
2023/06/03 06:01:54;;;;;;;3.70;2.67;;;;;;;17.83;47.08;99147.38;4918751;29;40301;-85
2023/06/03 06:04:22;;;;;;;3.53;2.50;;;;;;;17.91;46.74;99146.72;4917592;29;41392;-84
2023/06/03 06:06:51;;;;;;;3.77;2.60;;;;;;;18.06;46.94;99158.75;4934550;29;42786;-84
2023/06/03 06:09:20;;;;;;;2.77;2.40;;;;;;;18.11;46.71;99143.13;4917617;29;41074;-83
2023/06/03 06:11:48;;;;;;;3.90;3.03;;;;;;;18.36;45.66;99165.06;4918287;29;38880;-83
2023/06/03 06:14:15;;;;;;;4.50;2.97;;;;;;;18.30;44.87;99151.19;4917564;28;40734;-83
2023/06/03 06:16:43;;;;;;;5.23;2.90;;;;;;;18.43;45.24;99171.56;4918316;29;42719;-83
2023/06/03 06:19:11;;;;;;;3.43;2.80;;;;;;;18.50;45.47;99151.25;4917863;28;41000;-85
2023/06/03 06:21:39;;;;;;;4.70;3.00;;;;;;;18.88;45.24;99169.25;4920755;29;38837;-83
2023/06/03 06:24:08;;;;;;;3.53;2.50;;;;;;;19.22;44.10;99175.03;4918780;28;40945;-81
2023/06/03 06:26:39;;;;;;;4.40;2.83;;;;;;;19.42;44.17;99175.84;4935727;29;42822;-85
2023/06/03 06:29:07;;;;;;;3.37;2.77;;;;;;;19.43;43.75;99178.41;4919511;28;41354;-85
2023/06/03 06:31:35;;;;;;;4.20;2.63;;;;;;;19.45;44.16;99154.94;4923530;29;40087;-82
2023/06/03 06:34:03;;;;;;;2.70;2.50;;;;;;;19.90;43.34;99170.41;4939166;28;41795;-83
2023/06/03 06:36:47;;;;;;;4.73;2.90;;;;;;;20.16;42.51;99182.16;4920452;29;41703;-84
2023/06/03 06:39:48;;;;;;;4.90;2.60;;;;;;;20.40;43.21;99160.97;4919311;29;42692;-83
2023/06/03 06:42:30;;;;;;;4.43;2.80;;;;;;;20.72;43.16;99170.41;4932860;29;40224;-84
2023/06/03 06:45:04;;;;;;;4.73;2.77;;;;;;;20.75;42.39;99175.50;4933445;29;41644;-85
2023/06/03 06:47:37;;;;;;;4.20;3.03;;;;;;;20.71;41.74;99169.56;4932904;29;42967;-85
2023/06/03 06:50:09;;;;;;;5.03;2.90;;;;;;;20.93;42.10;99176.34;4935343;28;42687;-82
2023/06/03 06:52:36;;;;;;;4.20;2.80;;;;;;;20.96;40.99;99176.03;4932942;29;40523;-85
2023/06/03 06:55:09;;;;;;;4.23;2.70;;;;;;;20.88;41.35;99178.66;4935430;28;41816;-84
2023/06/03 06:57:39;;;;;;;4.23;3.13;;;;;;;20.65;40.98;99166.63;4933818;29;43726;-86
2023/06/03 07:00:11;;;;;;;3.70;2.50;;;;;;;20.56;40.96;99163.00;4905209;29;41239;-83
2023/06/03 07:02:40;;;;;;;5.63;2.80;;;;;;;20.67;41.76;99154.72;4920755;29;38988;-84
2023/06/03 07:05:09;;;;;;;3.40;2.77;;;;;;;20.74;40.80;99168.44;4936180;28;42732;-84
2023/06/03 07:07:37;;;;;;;3.87;2.90;;;;;;;20.71;41.07;99160.66;4936539;29;42766;-85
2023/06/03 07:10:06;;;;;;;3.73;2.87;;;;;;;20.80;41.39;99174.03;4919087;29;42324;-77
2023/06/03 07:12:37;;;;;;;4.73;3.00;;;;;;;21.05;41.07;99168.88;4934950;29;39955;-78
2023/06/03 07:15:08;;;;;;;3.57;3.23;;;;;;;21.17;40.65;99162.25;4934603;28;42417;-79
2023/06/03 07:17:36;;;;;;;3.43;3.10;;;;;;;21.51;40.60;99171.31;4932540;29;42772;-78
2023/06/03 07:20:05;;;;;;;5.60;3.00;;;;;;;21.74;40.62;99177.03;4926443;28;42224;-74
2023/06/03 07:22:34;;;;;;;5.70;3.00;;;;;;;21.85;39.96;99184.84;4952048;28;41554;-75
2023/06/03 07:25:01;;;;;;;3.90;2.60;;;;;;;21.99;40.19;99177.22;4936325;28;41690;-74
2023/06/03 07:27:31;;;;;;;4.90;3.03;;;;;;;22.26;39.77;99182.38;4953877;28;42759;-73
2023/06/03 07:30:02;;;;;;;5.20;2.97;;;;;;;22.79;39.54;99176.69;4950110;28;42187;-74
2023/06/03 07:32:33;;;;;;;3.20;2.90;;;;;;;23.40;37.95;99185.34;4948931;28;40110;-74
2023/06/03 07:35:01;;;;;;;4.60;3.07;;;;;;;24.18;36.75;99199.13;4952604;28;41811;-74
2023/06/03 07:37:29;;;;;;;3.60;3.00;;;;;;;24.84;35.50;99190.56;4953819;28;43725;-73
2023/06/03 07:39:57;;;;;;;5.40;3.20;;;;;;;25.34;35.19;99198.19;4952465;28;43021;-74
2023/06/03 07:42:27;;;;;;;5.27;3.07;;;;;;;25.44;34.04;99207.94;4952804;28;41003;-74
2023/06/03 07:45:05;;;;;;;4.93;3.10;;;;;;;25.33;34.42;99201.09;4950908;28;41831;-74
2023/06/03 07:47:34;;;;;;;4.30;2.93;;;;;;;25.37;35.32;99194.25;4952521;28;42114;-74
2023/06/03 07:50:16;;;;;;;5.17;3.10;;;;;;;25.69;34.36;99196.72;4952212;28;41325;-75
2023/06/03 07:52:43;;;;;;;6.20;3.10;;;;;;;26.68;33.83;99210.91;4950906;28;40040;-75
2023/06/03 07:55:12;;;;;;;3.93;2.90;;;;;;;27.78;31.35;99206.84;4952814;28;41640;-74
2023/06/03 07:57:45;;;;;;;3.90;3.33;;;;;;;29.10;28.72;99232.13;4953367;28;43741;-74
2023/06/03 08:00:17;;;;;;;3.80;2.70;;;;;;;30.29;28.67;99241.25;4953347;28;42614;-74
2023/06/03 08:02:46;;;;;;;2.70;2.50;;;;;;;31.42;27.66;99244.41;4953566;28;40079;-74
2023/06/03 08:05:16;;;;;;;5.17;2.90;;;;;;;32.07;26.45;99255.94;4952901;28;40861;-74
2023/06/03 08:07:45;;;;;;;3.10;2.80;;;;;;;32.69;26.23;99238.44;4954280;28;44956;-74
2023/06/03 08:10:23;;;;;;;4.40;2.90;;;;;;;33.27;24.66;99250.84;4953819;28;42584;-74
2023/06/03 08:12:51;;;;;;;3.60;2.90;;;;;;;33.79;24.09;99235.50;4953033;28;39655;-75
2023/06/03 08:15:37;;;;;;;6.17;3.00;;;;;;;34.43;22.88;99261.25;4954062;28;41744;-75
2023/06/03 08:18:07;;;;;;;3.97;3.00;;;;;;;34.65;22.89;99262.28;4950138;28;42777;-75
2023/06/03 08:20:36;;;;;;;4.30;3.50;;;;;;;34.71;22.92;99242.06;4953867;28;41924;-75
2023/06/03 08:23:05;;;;;;;4.43;3.17;;;;;;;34.66;22.85;99252.13;4953706;28;39810;-74
2023/06/03 08:25:33;;;;;;;5.23;3.33;;;;;;;34.22;22.75;99233.25;4950806;28;42057;-75
2023/06/03 08:28:00;;;;;;;5.70;2.87;;;;;;;34.20;23.00;99251.06;4951716;28;42807;-76
2023/06/03 08:30:28;;;;;;;3.97;3.00;;;;;;;34.21;22.70;99241.75;4951507;28;41479;-75
2023/06/03 08:32:55;;;;;;;4.73;3.40;;;;;;;34.35;22.94;99256.97;4953118;28;39694;-75
2023/06/03 08:35:25;;;;;;;4.37;3.40;;;;;;;34.46;23.12;99249.78;4951381;28;41985;-76
2023/06/03 08:37:53;;;;;;;4.80;3.27;;;;;;;34.70;22.11;99256.91;4952690;28;20713;-75
2023/06/03 08:40:25;;;;;;;3.60;2.63;;;;;;;34.88;23.83;99242.16;4951477;28;41383;-76
2023/06/03 08:42:59;;;;;;;5.50;3.30;;;;;;;34.91;22.05;99259.03;4949187;28;40871;-75
2023/06/03 08:45:36;;;;;;;4.90;3.13;;;;;;;34.51;22.21;99253.44;4951971;28;42769;-75
2023/06/03 08:48:08;;;;;;;3.58;3.25;;;;;;;34.00;22.32;99253.34;4948656;28;42437;-75
2023/06/03 08:50:37;;;;;;;6.90;2.90;;;;;;;33.52;22.83;99248.78;4951912;28;42369;-76
2023/06/03 08:53:08;;;;;;;3.80;3.40;;;;;;;32.91;23.17;99240.75;4952906;28;40030;-75
2023/06/03 08:55:38;;;;;;;5.97;3.20;;;;;;;32.50;23.90;99233.22;4936299;28;42208;-75
2023/06/03 08:58:12;;;;;;;3.63;3.03;;;;;;;32.10;24.57;99234.44;4952322;28;43679;-75
2023/06/03 09:00:40;;;;;;;3.47;2.90;;;;;;;31.66;25.27;99215.41;4952505;28;43514;-75
2023/06/03 09:03:11;;;;;;;5.50;3.10;;;;;;;31.33;24.95;99229.31;4952333;28;40639;-75
2023/06/03 09:05:42;;;;;;;3.73;3.00;;;;;;;31.11;25.05;99228.84;4952793;28;41802;-75
2023/06/03 09:08:12;;;;;;;4.73;2.80;;;;;;;31.23;25.53;99205.19;4949506;28;43518;-75
2023/06/03 09:10:40;;;;;;;4.60;2.70;;;;;;;31.58;25.37;99211.03;4952197;28;43198;-75
2023/06/03 09:13:09;;;;;;;3.63;2.70;;;;;;;31.34;25.71;99212.69;4951884;28;39973;-75
2023/06/03 09:15:37;;;;;;;4.43;2.90;;;;;;;31.16;25.73;99206.28;4951481;28;42430;-75
2023/06/03 09:18:05;;;;;;;4.80;3.30;;;;;;;31.12;25.46;99211.34;4952176;28;42784;-75
2023/06/03 09:20:32;;;;;;;5.37;3.20;;;;;;;31.17;25.90;99210.69;4953191;28;42400;-75
2023/06/03 09:23:02;;;;;;;4.20;2.90;;;;;;;31.10;25.96;99207.16;4935795;28;40599;-75
2023/06/03 09:25:30;;;;;;;4.77;3.20;;;;;;;31.20;24.58;99223.94;4933672;28;42012;-75
2023/06/03 09:27:57;;;;;;;5.27;3.07;;;;;;;31.08;25.60;99216.38;4952345;28;43476;-75
2023/06/03 09:30:25;;;;;;;5.37;3.40;;;;;;;31.22;24.47;99224.56;4950956;28;42633;-75
2023/06/03 09:32:53;;;;;;;3.77;3.00;;;;;;;32.12;24.17;99209.53;4952239;28;40310;-75
2023/06/03 09:35:21;;;;;;;2.97;2.67;;;;;;;33.48;24.25;99211.88;4950962;28;41700;-75
2023/06/03 09:37:58;;;;;;;4.50;2.77;;;;;;;34.10;23.67;99212.34;4934907;28;42724;-75
2023/06/03 09:40:30;;;;;;;3.30;3.00;;;;;;;34.69;23.27;99224.13;4949953;28;43027;-75
2023/06/03 09:42:57;;;;;;;3.03;2.73;;;;;;;35.00;20.84;99236.63;4935070;28;38848;-75
2023/06/03 09:45:28;;;;;;;4.00;3.00;;;;;;;35.36;20.71;99221.66;4951910;28;42484;-76
2023/06/03 09:47:56;;;;;;;3.07;2.67;;;;;;;36.37;21.04;99231.63;4950977;28;42927;-75
2023/06/03 09:50:25;;;;;;;5.30;3.60;;;;;;;37.11;18.78;99243.09;4950534;28;41103;-75
2023/06/03 09:52:53;;;;;;;4.93;2.90;;;;;;;37.63;18.11;99261.94;4934543;28;41261;-75
2023/06/03 09:55:28;;;;;;;4.33;3.07;;;;;;;37.78;17.35;99252.97;4955996;28;41698;-76
2023/06/03 09:58:05;;;;;;;3.77;3.13;;;;;;;37.40;18.70;99247.34;4955030;28;42789;-75
2023/06/03 10:00:46;;;;;;;10.43;3.20;;;;;;;36.43;19.25;99238.91;4954225;28;42368;-75
2023/06/03 10:03:13;;;;;;;14.00;4.47;;;;;;;35.45;20.82;99223.75;4954952;28;38928;-75
2023/06/03 10:05:42;;;;;;;20.13;4.43;;;;;;;34.68;21.79;99214.19;4955085;28;41809;-75
2023/06/03 10:08:09;;;;;;;5.57;3.17;;;;;;;34.24;23.18;99206.38;4938924;28;41553;-74
2023/06/03 10:10:55;;;;;;;8.40;3.53;;;;;;;33.76;21.83;99222.22;4954797;28;42332;-75
2023/06/03 10:13:24;;;;;;;6.57;3.23;;;;;;;33.28;22.22;99227.81;4938694;28;40374;-76
2023/06/03 10:15:53;;;;;;;4.17;3.07;;;;;;;33.11;22.13;99214.72;4954170;28;41785;-75
2023/06/03 10:18:36;;;;;;;3.53;2.50;;;;;;;33.33;23.31;99189.50;4956030;28;42860;-75
2023/06/03 10:21:07;;;;;;;5.90;3.10;;;;;;;33.68;21.21;99220.63;4947509;28;43416;-77
2023/06/03 10:23:38;;;;;;;3.27;2.93;;;;;;;33.56;21.46;99217.03;4949690;28;39922;-76
2023/06/03 10:26:06;;;;;;;4.23;3.00;;;;;;;33.32;21.69;99209.81;4922441;28;40687;-76
2023/06/03 10:28:36;;;;;;;4.13;2.80;;;;;;;33.39;24.01;99172.09;4933859;28;43488;-75
2023/06/03 10:31:05;;;;;;;5.73;3.13;;;;;;;33.73;23.55;99196.03;4921307;28;43308;-75
2023/06/03 10:33:34;;;;;;;3.73;3.33;;;;;;;33.82;21.89;99207.53;4932603;29;38997;-76
2023/06/03 10:36:04;;;;;;;3.40;3.10;;;;;;;33.68;21.43;99206.91;4921632;28;42218;-76
2023/06/03 10:38:32;;;;;;;4.87;2.93;;;;;;;33.63;22.31;99201.25;4939094;28;42743;-76
2023/06/03 10:41:00;;;;;;;3.33;3.00;;;;;;;33.57;23.55;99196.72;4935101;28;42067;-74
2023/06/03 10:43:31;;;;;;;4.03;3.10;;;;;;;33.51;23.23;99186.66;4942129;28;41047;-75
2023/06/03 10:46:01;;;;;;;4.90;3.33;;;;;;;33.30;22.48;99195.47;4935971;28;42724;-75
2023/06/03 10:48:31;;;;;;;4.00;3.03;;;;;;;33.26;25.22;99172.31;4930027;28;42710;-75
2023/06/03 10:51:09;;;;;;;3.63;2.53;;;;;;;33.34;23.98;99175.56;4930227;28;42639;-75
2023/06/03 10:53:49;;;;;;;2.87;2.47;;;;;;;32.81;23.02;99197.41;4926358;28;40046;-77
2023/06/03 10:56:27;;;;;;;4.17;3.10;;;;;;;32.14;23.74;99190.97;4932336;28;42738;-75
2023/06/03 10:59:02;;;;;;;4.20;3.13;;;;;;;31.95;23.97;99186.50;4931943;28;43040;-75
2023/06/03 11:02:02;;;;;;;4.20;3.10;;;;;;;32.28;24.55;99181.53;4938031;28;41647;-74
2023/06/03 11:04:33;;;;;;;3.60;3.10;;;;;;;32.43;23.72;99187.50;4921803;28;40069;-74
2023/06/03 11:07:02;;;;;;;6.23;3.20;;;;;;;32.62;24.04;99177.38;4946247;28;41695;-76
2023/06/03 11:09:38;;;;;;;5.30;3.07;;;;;;;32.43;22.59;99190.22;4939813;28;42693;-74
2023/06/03 11:12:09;;;;;;;10.73;4.00;;;;;;;32.71;24.83;99176.00;4932731;28;43094;-75
2023/06/03 11:14:56;;;;;;;4.93;3.30;;;;;;;33.19;23.19;99197.91;4932400;28;40774;-76
2023/06/03 11:17:27;;;;;;;3.80;3.20;;;;;;;33.58;22.85;99198.41;4944105;28;42507;-73
2023/06/03 11:20:00;;;;;;;6.83;3.00;;;;;;;33.97;22.08;99202.44;4936393;28;43486;-75
2023/06/03 11:22:42;;;;;;;4.47;3.23;;;;;;;33.94;23.58;99186.41;4916301;29;41203;-74
2023/06/03 11:25:29;;;;;;;4.57;3.17;;;;;;;34.18;23.73;99188.06;4915407;29;41957;-74
2023/06/03 11:28:36;;;;;;;3.50;2.77;;;;;;;34.53;22.55;99195.44;4933316;29;40952;-75
2023/06/03 11:31:06;;;;;;;3.43;3.10;;;;;;;34.30;21.68;99190.00;4935103;29;42701;-75
2023/06/03 11:33:34;;;;;;;5.20;3.07;;;;;;;34.40;23.71;99174.53;4933895;29;42359;-75
2023/06/03 11:36:39;;;;;;;4.37;3.30;;;;;;;34.53;21.84;99196.28;4935428;29;40911;-75
2023/06/03 11:39:08;;;;;;;5.33;3.27;;;;;;;34.76;24.50;99172.56;4935151;29;42812;-75
2023/06/03 11:42:02;;;;;;;3.97;3.10;;;;;;;35.02;22.48;99184.91;4935218;29;42859;-75
2023/06/03 11:44:31;;;;;;;4.77;3.50;;;;;;;35.57;21.15;99187.88;4933769;29;42163;-75
2023/06/03 11:46:58;;;;;;;6.60;3.33;;;;;;;35.39;20.70;99188.09;4935263;29;40957;-76
2023/06/03 11:49:26;;;;;;;4.10;3.27;;;;;;;36.23;22.26;99169.63;4933664;29;41792;-75